Terminal Aerodrome Forecast
Issued by NWS

Home | Current Version | Previous Version | Text Only | Print | Product List | Glossary On
Versions: 1 2 3 4 5 6 7 8 9 10 11 12 13 14 15 16 17 18 19 20 21 22 23 24 25 26 27 28 29 30 31 32 33 34 35 36 37 38 39 40 41 42 43 44 45 46 47 48 49 50
222
FTUS41 KCTP 091025 AAB
TAFUNV
TAF AMD
KUNV 091025Z 0910/1006 18005KT P6SM VCSH BKN009 OVC012
     FM091100 13003KT 3SM -SN BR OVC010
     FM091300 VRB03KT 1 1/2SM -SN BR OVC008
     FM091600 13003KT 3/4SM -SN BR OVC008
     FM100300 28008KT 3SM -SHSN BR OVC015=

USA.gov is the U.S. government's official web portal to all federal, state and local government web resources and services.